Time;durP1;ratioP1;P1;durP2;ratioP2;P2;SDS_P1;SDS_P2;PMS_P1;PMS_P2;Temp;Humidity;BMP_temperature;BMP_pressure;BME280_temperature;BME280_humidity;BME280_pressure;Samples;Min_cycle;Max_cycle;Signal;HPM_P1;HPM_P2
2019/10/27 00:02:15;;;;;;;9.1;7.1;;;;;;;10.67;95.92676;1004.725;;;;
2019/10/27 00:04:40;;;;;;;10.7;7.2;;;;;;;10.78;95.27637;1004.759;;;;
2019/10/27 00:07:05;;;;;;;9.3;7.1;;;;;;;10.78;95.16211;1004.786;;;;
2019/10/27 00:09:31;;;;;;;11.6;7;;;;;;;10.83;94.72754;1004.732;;;;
2019/10/27 00:11:56;;;;;;;9.6;6.8;;;;;;;10.96;93.88379;1004.765;;;;
2019/10/27 00:14:21;;;;;;;11.6;6.8;;;;;;;11.02;93.58594;1004.701;;;;
2019/10/27 00:16:47;;;;;;;9.2;6.1;;;;;;;11.12;92.7959;1004.712;;;;
2019/10/27 00:19:11;;;;;;;8.7;6;;;;;;;11.2;92.24023;1004.768;;;;
2019/10/27 00:21:36;;;;;;;10.1;6;;;;;;;11.21;92.55176;1004.819;;;;
2019/10/27 00:24:02;;;;;;;8.9;5.8;;;;;;;11.34;91.63965;1004.81;;;;
2019/10/27 00:26:27;;;;;;;11.7;6.2;;;;;;;11.36;91.69922;1004.809;;;;
2019/10/27 00:28:52;;;;;;;8.1;5.5;;;;;;;11.43;91.29004;1004.836;;;;
2019/10/27 00:31:17;;;;;;;8.4;5.8;;;;;;;11.47;91.12695;1004.7;;;;
2019/10/27 00:33:48;;;;;;;6.3;4.9;;;;;;;11.63;89.81641;1004.69;;;;
2019/10/27 00:36:08;;;;;;;7;5.3;;;;;;;11.67;90.26172;1004.713;;;;
2019/10/27 00:38:33;;;;;;;6.9;5.4;;;;;;;11.56;90.70801;1004.645;;;;
2019/10/27 00:40:58;;;;;;;8.2;5.2;;;;;;;11.61;90.35059;1004.683;;;;
2019/10/27 00:43:23;;;;;;;8.1;5.1;;;;;;;11.54;90.80762;1004.736;;;;
2019/10/27 00:45:49;;;;;;;8.3;5.1;;;;;;;11.54;90.41797;1004.748;;;;
2019/10/27 00:48:14;;;;;;;8.4;5.5;;;;;;;11.48;90.94336;1004.699;;;;
2019/10/27 00:50:39;;;;;;;7;5.2;;;;;;;11.44;91.21094;1004.713;;;;
2019/10/27 00:53:04;;;;;;;6.5;5;;;;;;;11.51;90.76563;1004.758;;;;
2019/10/27 00:55:29;;;;;;;8.3;5.2;;;;;;;11.44;91.09668;1004.831;;;;
2019/10/27 00:57:55;;;;;;;8.4;5;;;;;;;11.42;91.13867;1004.741;;;;
2019/10/27 01:00:20;;;;;;;7.6;5.2;;;;;;;11.35;91.25;1004.746;;;;
2019/10/27 01:02:45;;;;;;;8.3;6.1;;;;;;;11.34;91.47949;1004.771;;;;
2019/10/27 01:05:10;;;;;;;7.3;5.1;;;;;;;11.37;91.17285;1004.729;;;;
2019/10/27 01:07:35;;;;;;;7.7;5.4;;;;;;;11.36;91.13672;1004.726;;;;
2019/10/27 01:10:00;;;;;;;9.8;5.8;;;;;;;11.25;91.57324;1004.79;;;;
2019/10/27 01:12:25;;;;;;;9.2;5.6;;;;;;;11.23;91.71973;1004.796;;;;
2019/10/27 01:14:51;;;;;;;8.5;5.9;;;;;;;11.11;92.24316;1004.813;;;;
2019/10/27 01:17:16;;;;;;;8.2;6.2;;;;;;;10.97;92.72656;1004.761;;;;
2019/10/27 01:19:41;;;;;;;8.4;5.6;;;;;;;10.88;93.10059;1004.798;;;;
2019/10/27 01:22:06;;;;;;;7.4;5.8;;;;;;;10.8;93.55078;1004.786;;;;
2019/10/27 01:24:31;;;;;;;7.9;6.3;;;;;;;10.68;94.00684;1004.791;;;;
2019/10/27 01:26:56;;;;;;;8.8;5.9;;;;;;;10.69;94.19141;1004.829;;;;
2019/10/27 01:29:21;;;;;;;8.2;6.4;;;;;;;10.66;93.80664;1004.873;;;;
2019/10/27 01:31:46;;;;;;;9.2;6.4;;;;;;;10.57;93.97168;1004.905;;;;
2019/10/27 01:34:12;;;;;;;9.8;6.1;;;;;;;10.53;94.05371;1004.9;;;;
2019/10/27 01:36:37;;;;;;;8.1;6.5;;;;;;;10.41;94.74902;1004.879;;;;
2019/10/27 01:39:02;;;;;;;7.7;5.8;;;;;;;10.4;95.29492;1004.909;;;;
2019/10/27 01:41:27;;;;;;;9;6.8;;;;;;;10.39;95.09961;1004.959;;;;
2019/10/27 01:43:52;;;;;;;10.7;7;;;;;;;10.36;94.98926;1004.983;;;;
2019/10/27 01:46:17;;;;;;;8.8;7;;;;;;;10.28;95.25879;1004.939;;;;
2019/10/27 01:48:42;;;;;;;9.1;6.9;;;;;;;10.3;95.57031;1004.893;;;;
2019/10/27 01:51:07;;;;;;;10;6.6;;;;;;;10.23;95.7373;1004.853;;;;
2019/10/27 01:53:33;;;;;;;11;6.8;;;;;;;10.23;95.76172;1004.819;;;;
2019/10/27 01:55:58;;;;;;;7.5;5.8;;;;;;;10.27;95.74902;1004.762;;;;
2019/10/27 01:58:23;;;;;;;7;5.4;;;;;;;10.37;95.85156;1004.71;;;;
2019/10/27 02:00:48;;;;;;;8.8;5.7;;;;;;;10.41;95.69922;1004.76;;;;
2019/10/27 02:03:13;;;;;;;8.3;5.8;;;;;;;10.55;95.58203;1004.74;;;;
2019/10/27 02:05:38;;;;;;;8.9;5.5;;;;;;;10.62;95.55176;1004.702;;;;
2019/10/27 02:08:28;;;;;;;8.9;5.7;;;;;;;10.73;94.94629;1004.684;;;;
2019/10/27 02:10:29;;;;;;;8;5;;;;;;;10.77;94.81445;1004.688;;;;
2019/10/27 02:12:54;;;;;;;7.2;5;;;;;;;10.86;94.17188;1004.642;;;;
2019/10/27 02:15:19;;;;;;;7.7;4.9;;;;;;;10.89;94.01953;1004.667;;;;
2019/10/27 02:17:44;;;;;;;7.1;5.3;;;;;;;10.91;93.99805;1004.647;;;;
2019/10/27 02:20:10;;;;;;;6.8;4.7;;;;;;;10.93;94.00391;1004.652;;;;
2019/10/27 02:22:34;;;;;;;10.1;4.8;;;;;;;11.03;93.40723;1004.606;;;;
2019/10/27 02:25:00;;;;;;;5.8;4.8;;;;;;;11.05;93.70898;1004.64;;;;
2019/10/27 02:27:25;;;;;;;8.6;4.7;;;;;;;11.05;93.70898;1004.551;;;;
2019/10/27 02:29:50;;;;;;;6.7;4.8;;;;;;;11.09;93.40723;1004.611;;;;
2019/10/27 02:32:15;;;;;;;8;5.1;;;;;;;11.12;93.46094;1004.644;;;;
2019/10/27 02:34:40;;;;;;;8.1;4.7;;;;;;;11.18;93.21094;1004.628;;;;
2019/10/27 02:37:05;;;;;;;7.2;4.8;;;;;;;11.27;92.73535;1004.541;;;;
2019/10/27 02:39:30;;;;;;;8.2;4.8;;;;;;;11.26;92.80371;1004.581;;;;
2019/10/27 02:41:55;;;;;;;7.3;4.8;;;;;;;11.3;92.66211;1004.504;;;;
2019/10/27 02:44:21;;;;;;;7.9;5.1;;;;;;;11.35;92.83301;1004.442;;;;
2019/10/27 02:46:46;;;;;;;7.4;5.3;;;;;;;11.38;92.85156;1004.453;;;;
2019/10/27 02:49:12;;;;;;;8.7;5.4;;;;;;;11.47;92.51563;1004.421;;;;
2019/10/27 02:51:37;;;;;;;7.1;5.2;;;;;;;11.52;92.3418;1004.419;;;;
2019/10/27 02:54:02;;;;;;;7.8;5.1;;;;;;;11.58;92.16016;1004.378;;;;
2019/10/27 02:56:27;;;;;;;8.9;5.4;;;;;;;11.63;91.95117;1004.35;;;;
2019/10/27 02:58:52;;;;;;;7.9;5.6;;;;;;;11.69;91.85938;1004.357;;;;
2019/10/27 03:01:17;;;;;;;8.1;5.4;;;;;;;11.7;91.85352;1004.298;;;;
2019/10/27 03:03:42;;;;;;;8.5;5.4;;;;;;;11.76;91.94531;1004.24;;;;
2019/10/27 03:06:07;;;;;;;8.2;6;;;;;;;11.9;91.23926;1004.238;;;;
2019/10/27 03:08:33;;;;;;;9;5.5;;;;;;;11.9;91.16992;1004.257;;;;
2019/10/27 03:10:58;;;;;;;7.9;5.9;;;;;;;11.94;91.32715;1004.325;;;;
2019/10/27 03:13:23;;;;;;;10.3;6.2;;;;;;;11.97;91.27734;1004.295;;;;
2019/10/27 03:15:48;;;;;;;8.6;6.2;;;;;;;12.15;90.77539;1004.287;;;;
2019/10/27 03:20:38;;;;;;;9.4;6.1;;;;;;;12.39;89.91797;1004.307;;;;
2019/10/27 03:23:03;;;;;;;7.8;6;;;;;;;12.41;89.7832;1004.273;;;;
2019/10/27 03:25:28;;;;;;;9;6.2;;;;;;;12.49;89.35156;1004.276;;;;
2019/10/27 03:27:53;;;;;;;7.6;6;;;;;;;12.47;89.34766;1004.268;;;;
2019/10/27 03:30:18;;;;;;;7.2;5.9;;;;;;;12.47;89.2334;1004.278;;;;
2019/10/27 03:32:43;;;;;;;10.6;6.1;;;;;;;12.47;89.03711;1004.285;;;;
2019/10/27 03:35:08;;;;;;;9.4;5.9;;;;;;;12.48;88.75;1004.291;;;;
2019/10/27 03:37:34;;;;;;;7.7;5.8;;;;;;;12.68;87.18164;1004.285;;;;
2019/10/27 03:39:59;;;;;;;8.7;5.2;;;;;;;12.59;87.71582;1004.264;;;;
2019/10/27 03:42:24;;;;;;;7.2;5.1;;;;;;;12.55;88.14551;1004.331;;;;
2019/10/27 03:44:49;;;;;;;8.6;5.9;;;;;;;12.59;87.69238;1004.275;;;;
2019/10/27 03:47:14;;;;;;;8.7;5.5;;;;;;;12.54;87.86621;1004.348;;;;
2019/10/27 03:49:39;;;;;;;7.8;5.2;;;;;;;12.5;87.97363;1004.43;;;;
2019/10/27 03:52:05;;;;;;;10.7;5.7;;;;;;;12.43;88.22363;1004.418;;;;
2019/10/27 03:54:30;;;;;;;11;5.4;;;;;;;12.45;88.00879;1004.492;;;;
2019/10/27 03:56:55;;;;;;;7.7;5.5;;;;;;;12.41;88.02441;1004.445;;;;
2019/10/27 03:59:20;;;;;;;7.7;5.3;;;;;;;12.48;87.38379;1004.43;;;;
2019/10/27 04:02:29;;;;;;;6.5;5.4;;;;;;;12.31;88.2666;1004.437;;;;
2019/10/27 04:04:55;;;;;;;9.5;5.6;;;;;;;12.28;88.45898;1004.476;;;;
2019/10/27 04:07:20;;;;;;;7.4;5.3;;;;;;;12.23;88.66406;1004.493;;;;
2019/10/27 04:09:45;;;;;;;7;5.5;;;;;;;12.37;87.9707;1004.506;;;;
2019/10/27 04:12:10;;;;;;;8.1;5.6;;;;;;;12.2;88.5459;1004.491;;;;
2019/10/27 04:14:35;;;;;;;9.5;5.4;;;;;;;12.13;89.17383;1004.524;;;;
2019/10/27 04:17:00;;;;;;;8.1;5.7;;;;;;;12.13;89.26465;1004.531;;;;
2019/10/27 04:19:25;;;;;;;6.9;5.3;;;;;;;12.12;89.125;1004.573;;;;
2019/10/27 04:21:50;;;;;;;8.9;5.8;;;;;;;12.03;89.68262;1004.603;;;;
2019/10/27 04:24:15;;;;;;;7.2;5.8;;;;;;;11.95;89.84961;1004.626;;;;
2019/10/27 04:26:40;;;;;;;8.7;5.9;;;;;;;11.95;90.125;1004.744;;;;
2019/10/27 04:29:06;;;;;;;10;5.9;;;;;;;11.89;90.41016;1004.71;;;;
2019/10/27 04:31:31;;;;;;;8.2;5.6;;;;;;;11.93;90.0293;1004.718;;;;
2019/10/27 04:33:56;;;;;;;7.8;5.8;;;;;;;11.91;90.29004;1004.685;;;;
2019/10/27 04:36:39;;;;;;;10.2;6.1;;;;;;;11.92;90.20898;1004.655;;;;
2019/10/27 04:39:07;;;;;;;8.6;5.7;;;;;;;11.95;90.01172;1004.646;;;;
2019/10/27 04:41:33;;;;;;;8.8;6.2;;;;;;;11.89;90.19238;1004.677;;;;
2019/10/27 04:43:58;;;;;;;8.2;6.6;;;;;;;11.88;90.43359;1004.635;;;;
2019/10/27 04:46:22;;;;;;;11.6;6.6;;;;;;;11.91;90.57715;1004.679;;;;
2019/10/27 04:48:48;;;;;;;8.5;6.3;;;;;;;11.96;90.29883;1004.611;;;;
2019/10/27 04:51:13;;;;;;;8;6;;;;;;;12.04;89.93652;1004.558;;;;
2019/10/27 04:53:38;;;;;;;10.5;6.3;;;;;;;12.09;89.64941;1004.525;;;;
2019/10/27 04:56:03;;;;;;;9.7;6.1;;;;;;;12.13;89.31348;1004.572;;;;
2019/10/27 04:58:28;;;;;;;9.3;5.7;;;;;;;12.15;89.20117;1004.583;;;;
2019/10/27 05:00:53;;;;;;;9.9;6;;;;;;;12.18;88.81738;1004.514;;;;
2019/10/27 05:03:18;;;;;;;8;6;;;;;;;12.17;89.06641;1004.583;;;;
2019/10/27 05:05:43;;;;;;;9;5.8;;;;;;;12.21;88.98438;1004.473;;;;
2019/10/27 05:08:08;;;;;;;8.3;5.8;;;;;;;12.27;88.74219;1004.443;;;;
2019/10/27 05:10:33;;;;;;;7.8;6;;;;;;;12.29;88.72461;1004.432;;;;
2019/10/27 05:12:59;;;;;;;8.4;6.2;;;;;;;12.2;89.6377;1004.411;;;;
2019/10/27 05:15:24;;;;;;;9.5;5.9;;;;;;;12.26;89.32617;1004.443;;;;
2019/10/27 05:17:49;;;;;;;8.5;5.9;;;;;;;12.34;89.05762;1004.393;;;;
2019/10/27 05:20:14;;;;;;;10.5;6.2;;;;;;;12.29;89.3916;1004.387;;;;
2019/10/27 05:22:39;;;;;;;8.4;5.8;;;;;;;12.35;89.39258;1004.419;;;;
2019/10/27 05:25:04;;;;;;;7.7;6.3;;;;;;;12.32;89.5;1004.455;;;;
2019/10/27 05:27:29;;;;;;;10;6.4;;;;;;;12.37;89.23535;1004.479;;;;
2019/10/27 05:29:54;;;;;;;10.1;6;;;;;;;12.44;88.91699;1004.503;;;;
2019/10/27 05:32:20;;;;;;;8.7;6.1;;;;;;;12.51;88.84766;1004.566;;;;
2019/10/27 05:34:45;;;;;;;10.9;6.3;;;;;;;12.55;88.58301;1004.575;;;;
2019/10/27 05:37:10;;;;;;;8.6;6.3;;;;;;;12.45;89.29688;1004.534;;;;
2019/10/27 05:39:35;;;;;;;9.1;6.6;;;;;;;12.43;89.37305;1004.555;;;;
2019/10/27 05:42:00;;;;;;;9.1;6.4;;;;;;;12.44;89.12207;1004.534;;;;
2019/10/27 05:44:25;;;;;;;7.7;5.9;;;;;;;12.45;88.91699;1004.559;;;;
2019/10/27 05:46:50;;;;;;;9.5;6.1;;;;;;;12.38;89.53418;1004.624;;;;
2019/10/27 05:49:16;;;;;;;8.9;6.4;;;;;;;12.34;89.32227;1004.627;;;;
2019/10/27 05:51:41;;;;;;;7.6;6.3;;;;;;;12.36;89.21094;1004.654;;;;
2019/10/27 05:54:06;;;;;;;10;6.2;;;;;;;12.45;89.04395;1004.62;;;;
2019/10/27 05:56:31;;;;;;;7.1;5.9;;;;;;;12.54;88.79883;1004.722;;;;
2019/10/27 05:58:56;;;;;;;8.8;6.4;;;;;;;12.63;88.33301;1004.777;;;;
2019/10/27 06:01:21;;;;;;;10.5;6.3;;;;;;;12.72;87.81055;1004.806;;;;
2019/10/27 06:03:46;;;;;;;8.4;5.9;;;;;;;12.8;87.46973;1004.88;;;;
2019/10/27 06:06:12;;;;;;;9.4;6;;;;;;;12.74;88.51563;1004.879;;;;
2019/10/27 06:08:37;;;;;;;9.9;6.6;;;;;;;12.73;88.05566;1004.903;;;;
2019/10/27 06:11:02;;;;;;;10.8;6;;;;;;;12.7;88.62305;1004.928;;;;
2019/10/27 06:13:27;;;;;;;10.1;6.6;;;;;;;12.83;87.5332;1004.923;;;;
2019/10/27 06:15:53;;;;;;;10.8;6.5;;;;;;;12.95;87.00586;1004.836;;;;
2019/10/27 06:18:18;;;;;;;10.5;6.2;;;;;;;13.07;86.45313;1004.897;;;;
2019/10/27 06:20:43;;;;;;;11.3;6.2;;;;;;;13.11;86.15137;1004.891;;;;
2019/10/27 06:23:08;;;;;;;8.7;5.9;;;;;;;13.14;86.09961;1004.867;;;;
2019/10/27 06:25:33;;;;;;;11.6;6.5;;;;;;;13.19;85.90039;1004.887;;;;
2019/10/27 06:27:58;;;;;;;8.3;6.2;;;;;;;13.19;86.2002;1004.896;;;;
2019/10/27 06:30:24;;;;;;;9;6.1;;;;;;;13.27;85.83789;1004.795;;;;
2019/10/27 06:32:49;;;;;;;9.6;6.6;;;;;;;13.36;85.62305;1004.776;;;;
2019/10/27 06:35:14;;;;;;;8.6;6.5;;;;;;;13.37;85.68262;1004.807;;;;
2019/10/27 06:37:39;;;;;;;9.2;6.2;;;;;;;13.44;85.74512;1004.809;;;;
2019/10/27 06:40:04;;;;;;;9.4;6.4;;;;;;;13.5;85.17969;1004.865;;;;
2019/10/27 06:42:29;;;;;;;8.5;5.9;;;;;;;13.63;85.04395;1004.922;;;;
2019/10/27 06:44:55;;;;;;;7.6;6;;;;;;;13.72;84.50684;1004.899;;;;
2019/10/27 06:47:20;;;;;;;10.3;6.3;;;;;;;13.68;85.16797;1004.93;;;;
2019/10/27 06:49:45;;;;;;;10;6.1;;;;;;;13.8;85.01953;1005.004;;;;
2019/10/27 06:52:10;;;;;;;9.2;6.5;;;;;;;13.98;84.23438;1005.089;;;;
2019/10/27 06:54:35;;;;;;;9.9;6.2;;;;;;;13.94;83.7998;1005.132;;;;
2019/10/27 06:57:00;;;;;;;9;5.9;;;;;;;13.97;83.64551;1005.198;;;;
2019/10/27 06:59:27;;;;;;;10.4;6.2;;;;;;;13.97;83.45898;1005.172;;;;
2019/10/27 07:01:58;;;;;;;9.5;6.3;;;;;;;13.98;83.53223;1005.21;;;;
2019/10/27 07:04:16;;;;;;;9.2;6.2;;;;;;;14.02;83.6875;1005.255;;;;
2019/10/27 07:06:41;;;;;;;9.3;6.5;;;;;;;14.01;83.75684;1005.28;;;;
2019/10/27 07:09:07;;;;;;;8.5;6.4;;;;;;;14;83.88184;1005.277;;;;
2019/10/27 07:11:31;;;;;;;9;6.6;;;;;;;14.19;83.13281;1005.27;;;;
2019/10/27 07:13:57;;;;;;;10.2;6.4;;;;;;;14.2;82.93848;1005.324;;;;
2019/10/27 07:16:22;;;;;;;9;5.8;;;;;;;14.34;83.09277;1005.349;;;;
2019/10/27 07:18:47;;;;;;;7.3;6;;;;;;;14.57;81.85449;1005.332;;;;
2019/10/27 07:21:12;;;;;;;9.4;6.3;;;;;;;14.62;82.19824;1005.374;;;;
2019/10/27 07:23:37;;;;;;;7.8;6;;;;;;;14.77;81.34668;1005.425;;;;
2019/10/27 07:26:02;;;;;;;9.8;6.4;;;;;;;14.95;81.29004;1005.494;;;;
2019/10/27 07:28:27;;;;;;;10.4;6.2;;;;;;;15.1;80.58594;1005.551;;;;
2019/10/27 07:30:53;;;;;;;10.3;6;;;;;;;15.2;79.73828;1005.542;;;;
2019/10/27 07:33:18;;;;;;;8.9;5.9;;;;;;;15.21;79.80957;1005.557;;;;
2019/10/27 07:35:43;;;;;;;8.6;6;;;;;;;15.43;79.00391;1005.603;;;;
2019/10/27 07:38:08;;;;;;;10.6;7.1;;;;;;;15.6;79.45117;1005.677;;;;
2019/10/27 07:40:33;;;;;;;11.9;8.1;;;;;;;15.72;79.04395;1005.718;;;;
2019/10/27 07:42:58;;;;;;;10.3;6.7;;;;;;;15.54;79.11523;1005.705;;;;
2019/10/27 07:45:23;;;;;;;8.8;6;;;;;;;15.92;77.63086;1005.701;;;;
2019/10/27 07:47:48;;;;;;;12.4;6.7;;;;;;;16.01;77.20605;1005.733;;;;
2019/10/27 07:50:14;;;;;;;9.6;6.4;;;;;;;15.8;76.72949;1005.715;;;;
2019/10/27 07:52:39;;;;;;;8.3;5.9;;;;;;;15.56;77.6377;1005.708;;;;
2019/10/27 07:55:04;;;;;;;10.5;6.8;;;;;;;15.75;77.56543;1005.741;;;;
2019/10/27 07:57:29;;;;;;;10.4;6.3;;;;;;;15.67;77.35645;1005.781;;;;
2019/10/27 07:59:54;;;;;;;8.6;6.4;;;;;;;16.02;76.89648;1005.764;;;;
2019/10/27 08:02:19;;;;;;;8.3;5.9;;;;;;;16.22;76.16602;1005.796;;;;
2019/10/27 08:04:44;;;;;;;10.1;6;;;;;;;16.43;75.58691;1005.817;;;;
2019/10/27 08:07:09;;;;;;;10.2;6.2;;;;;;;16.57;74.80078;1005.83;;;;
2019/10/27 08:09:34;;;;;;;7.7;5.4;;;;;;;17.29;72.48242;1005.924;;;;
2019/10/27 08:12:00;;;;;;;10;5.8;;;;;;;17.27;71.92969;1005.892;;;;
2019/10/27 08:14:25;;;;;;;8.7;5.7;;;;;;;17.83;70.43945;1005.907;;;;
2019/10/27 08:16:50;;;;;;;7.2;5.5;;;;;;;18.13;69.19434;1005.908;;;;
2019/10/27 08:19:15;;;;;;;8.9;5.4;;;;;;;18.37;68.42676;1005.915;;;;
2019/10/27 08:21:40;;;;;;;8.3;5;;;;;;;19.51;63.59082;1005.999;;;;
2019/10/27 08:24:05;;;;;;;9.8;5.7;;;;;;;19.65;63.37793;1006;;;;
2019/10/27 08:26:31;;;;;;;9.3;5.1;;;;;;;19.83;62.61035;1005.98;;;;
2019/10/27 08:28:56;;;;;;;7.7;4.8;;;;;;;20.22;61.24805;1005.911;;;;
2019/10/27 08:31:21;;;;;;;7.9;4.9;;;;;;;20.34;60.43262;1005.997;;;;
2019/10/27 08:33:46;;;;;;;10.3;5.4;;;;;;;20.37;60.32031;1005.952;;;;
2019/10/27 08:36:11;;;;;;;7.4;4.6;;;;;;;20.22;60.48828;1006.005;;;;
2019/10/27 08:38:36;;;;;;;8.2;5.2;;;;;;;20.66;59.78613;1006.063;;;;
2019/10/27 08:41:01;;;;;;;7.6;4.9;;;;;;;21;58.55371;1005.908;;;;
2019/10/27 08:43:26;;;;;;;5.7;4.6;;;;;;;22.56;53.58301;1005.958;;;;
2019/10/27 08:45:51;;;;;;;7.6;4.7;;;;;;;21.86;55.18945;1005.96;;;;
2019/10/27 08:48:16;;;;;;;8.2;4.7;;;;;;;21.6;55.93359;1005.967;;;;
2019/10/27 08:50:41;;;;;;;8.3;4.9;;;;;;;22.29;54.2207;1006.072;;;;
2019/10/27 08:53:06;;;;;;;6.9;4.7;;;;;;;21.92;55.43262;1006.061;;;;
2019/10/27 08:55:32;;;;;;;10.1;4.9;;;;;;;22.84;52.68652;1006.05;;;;
2019/10/27 08:57:57;;;;;;;6.7;4.3;;;;;;;22.71;52.91895;1006.091;;;;
2019/10/27 09:00:22;;;;;;;7.9;4.6;;;;;;;23.3;51.10352;1006.113;;;;
2019/10/27 09:02:47;;;;;;;7.4;4.7;;;;;;;22.67;52.13672;1006.131;;;;
2019/10/27 09:05:13;;;;;;;6.4;4.6;;;;;;;23.08;52.02051;1006.154;;;;
2019/10/27 09:07:38;;;;;;;8.1;4.7;;;;;;;23.36;50.56738;1006.147;;;;
2019/10/27 09:10:03;;;;;;;6.3;4.3;;;;;;;23.81;48.94434;1006.057;;;;
2019/10/27 09:12:28;;;;;;;6.8;4.4;;;;;;;23.08;51.13574;1006.101;;;;
2019/10/27 09:14:53;;;;;;;7.8;4.8;;;;;;;23.64;50.06836;1006.107;;;;
2019/10/27 09:17:18;;;;;;;7.2;4.3;;;;;;;24.27;48.5332;1006.117;;;;
2019/10/27 09:19:43;;;;;;;6.8;4.4;;;;;;;23.51;50.00684;1006.112;;;;
2019/10/27 09:22:08;;;;;;;7.1;4.5;;;;;;;21.99;53.93848;1006.155;;;;
2019/10/27 09:24:33;;;;;;;8.4;4.9;;;;;;;21.8;54.74707;1006.113;;;;
2019/10/27 09:26:59;;;;;;;7.5;5.1;;;;;;;20.99;57.11035;1006.071;;;;
2019/10/27 09:29:24;;;;;;;7.2;4.5;;;;;;;20.23;59.3291;1006.182;;;;
2019/10/27 09:31:49;;;;;;;7.6;5.2;;;;;;;19.88;60.85059;1006.177;;;;
2019/10/27 09:34:14;;;;;;;9.7;5.3;;;;;;;19.43;62.42285;1006.145;;;;
2019/10/27 09:36:39;;;;;;;8.3;5.2;;;;;;;19.46;62.60254;1006.215;;;;
2019/10/27 09:39:04;;;;;;;7.8;5;;;;;;;19.3;63.80664;1006.144;;;;
2019/10/27 09:41:29;;;;;;;7.9;5.2;;;;;;;19.13;64.33105;1006.17;;;;
2019/10/27 09:43:55;;;;;;;10.2;5.4;;;;;;;19.13;64.47168;1006.198;;;;
2019/10/27 09:46:20;;;;;;;8.9;5.3;;;;;;;19.04;65.04102;1006.178;;;;
2019/10/27 09:48:45;;;;;;;10.7;5.6;;;;;;;18.87;65.69238;1006.177;;;;
2019/10/27 09:51:11;;;;;;;8.3;5.7;;;;;;;18.81;65.90625;1006.203;;;;
2019/10/27 09:53:36;;;;;;;9.7;5.2;;;;;;;18.77;66.14648;1006.189;;;;
2019/10/27 09:56:01;;;;;;;8.3;5.4;;;;;;;18.68;66.45801;1006.235;;;;
2019/10/27 09:58:26;;;;;;;10.2;5;;;;;;;18.71;66.43945;1006.262;;;;
2019/10/27 10:00:51;;;;;;;10.2;5.8;;;;;;;18.66;66.51367;1006.272;;;;
2019/10/27 10:03:16;;;;;;;8.9;5.4;;;;;;;18.66;66.37305;1006.288;;;;
2019/10/27 10:05:42;;;;;;;9.4;5.4;;;;;;;18.74;66.52539;1006.258;;;;
2019/10/27 10:08:07;;;;;;;9.2;5.7;;;;;;;18.56;67.22168;1006.29;;;;
2019/10/27 10:10:32;;;;;;;9.2;5.5;;;;;;;18.62;67.0791;1006.29;;;;
2019/10/27 10:12:57;;;;;;;9.5;5.5;;;;;;;18.72;67.11621;1006.326;;;;
2019/10/27 10:15:23;;;;;;;11.1;5.7;;;;;;;18.71;67.04688;1006.337;;;;
2019/10/27 10:17:48;;;;;;;8.9;5.4;;;;;;;18.75;67.29688;1006.297;;;;
2019/10/27 10:20:13;;;;;;;11.3;5.2;;;;;;;18.61;67.70801;1006.261;;;;
2019/10/27 10:22:38;;;;;;;8.4;5.1;;;;;;;18.89;66.91016;1006.265;;;;
2019/10/27 10:25:03;;;;;;;8.7;5.1;;;;;;;18.65;67.35156;1006.272;;;;
2019/10/27 10:27:28;;;;;;;8.4;5.7;;;;;;;18.68;66.99414;1006.255;;;;
2019/10/27 10:29:53;;;;;;;8.7;5.4;;;;;;;18.65;67.30371;1006.32;;;;
2019/10/27 10:32:19;;;;;;;10.7;5.5;;;;;;;18.56;67.90918;1006.318;;;;
2019/10/27 10:34:44;;;;;;;7.9;5.4;;;;;;;18.81;67.36523;1006.281;;;;
2019/10/27 10:37:09;;;;;;;8.3;5.7;;;;;;;18.81;67.06152;1006.357;;;;
2019/10/27 10:39:34;;;;;;;8.3;5.5;;;;;;;18.92;66.63477;1006.308;;;;
2019/10/27 10:41:59;;;;;;;10.4;5.6;;;;;;;18.94;66.89355;1006.253;;;;
2019/10/27 10:44:25;;;;;;;9.3;5.1;;;;;;;18.87;66.98828;1006.324;;;;
2019/10/27 10:46:50;;;;;;;7.8;5.7;;;;;;;19.04;66.44238;1006.345;;;;
2019/10/27 10:49:15;;;;;;;8.2;4.8;;;;;;;18.92;66.92578;1006.383;;;;
2019/10/27 10:51:40;;;;;;;7.9;5.6;;;;;;;18.97;67.03809;1006.31;;;;
2019/10/27 10:54:05;;;;;;;8.9;5.6;;;;;;;18.89;67.14355;1006.369;;;;
2019/10/27 10:56:30;;;;;;;8.4;5.2;;;;;;;19.11;66.82813;1006.381;;;;
2019/10/27 10:58:55;;;;;;;8.5;5.8;;;;;;;18.87;67.65332;1006.391;;;;
2019/10/27 11:01:20;;;;;;;8.8;5.6;;;;;;;19.15;66.56348;1006.389;;;;
2019/10/27 11:03:46;;;;;;;8.4;5.6;;;;;;;19.21;66.16406;1006.397;;;;
2019/10/27 11:06:11;;;;;;;8.8;5.6;;;;;;;19.1;66.54492;1006.305;;;;
2019/10/27 11:08:36;;;;;;;9.1;5.6;;;;;;;19.08;66.86914;1006.364;;;;
2019/10/27 11:11:01;;;;;;;9.2;6;;;;;;;19.25;65.78516;1006.277;;;;
2019/10/27 11:13:26;;;;;;;9.4;5.3;;;;;;;18.91;67.14648;1006.287;;;;
2019/10/27 11:15:51;;;;;;;9.4;5.7;;;;;;;19.02;66.91797;1006.294;;;;
2019/10/27 11:18:16;;;;;;;10.7;5.6;;;;;;;18.72;68.00391;1006.276;;;;
2019/10/27 11:20:41;;;;;;;10.3;6.2;;;;;;;18.77;68.12793;1006.259;;;;
2019/10/27 11:23:06;;;;;;;11.1;5.8;;;;;;;18.7;68.1416;1006.236;;;;
2019/10/27 11:25:31;;;;;;;8;5.6;;;;;;;18.83;67.69336;1006.109;;;;
2019/10/27 11:27:57;;;;;;;8.1;5.6;;;;;;;19.06;67.12305;1006.163;;;;
2019/10/27 11:30:22;;;;;;;9.4;5.5;;;;;;;19.02;67.54785;1006.169;;;;
2019/10/27 11:32:47;;;;;;;25.7;14;;;;;;;19;67.83594;1006.067;;;;
2019/10/27 11:35:12;;;;;;;8.3;5.5;;;;;;;19.29;66.65527;1006.132;;;;
2019/10/27 11:37:37;;;;;;;9.6;5.8;;;;;;;19.3;66.24805;1006.105;;;;
2019/10/27 11:40:02;;;;;;;7.9;5.5;;;;;;;19.32;66.51953;1006.102;;;;
2019/10/27 11:42:27;;;;;;;9.1;5.5;;;;;;;19.55;65.86523;1006.069;;;;
2019/10/27 11:44:53;;;;;;;7.2;5.6;;;;;;;19.41;66.32227;1006.084;;;;
2019/10/27 11:47:18;;;;;;;7.9;5.6;;;;;;;19.48;66.04102;1006.029;;;;
2019/10/27 11:49:43;;;;;;;12.4;6.9;;;;;;;19.21;67.42578;1006.069;;;;
2019/10/27 11:52:08;;;;;;;10.9;5.7;;;;;;;19.1;67.47852;1006.034;;;;
2019/10/27 11:54:34;;;;;;;8.3;5.5;;;;;;;19.22;67.28711;1005.981;;;;
2019/10/27 11:56:59;;;;;;;8.2;5.3;;;;;;;19.09;67.49023;1005.992;;;;
2019/10/27 11:59:24;;;;;;;9;5.4;;;;;;;19.02;67.92188;1005.941;;;;
2019/10/27 12:01:49;;;;;;;10.2;5.7;;;;;;;19.07;68.08203;1006.004;;;;
2019/10/27 12:04:14;;;;;;;12.7;6;;;;;;;19.15;67.85938;1005.992;;;;
2019/10/27 12:06:40;;;;;;;8.2;5.4;;;;;;;18.76;69.33984;1005.905;;;;
2019/10/27 12:09:05;;;;;;;9.6;5.2;;;;;;;18.86;68.78516;1005.85;;;;
2019/10/27 12:11:30;;;;;;;8.9;5.3;;;;;;;19.01;68.65527;1005.822;;;;
2019/10/27 12:13:55;;;;;;;7.8;5.7;;;;;;;19.15;68.00098;1005.819;;;;
2019/10/27 12:16:20;;;;;;;8.6;5.1;;;;;;;19.15;68;1005.863;;;;
2019/10/27 12:18:46;;;;;;;7.7;5.3;;;;;;;19.03;68.35547;1005.825;;;;
2019/10/27 12:21:11;;;;;;;7.9;5.4;;;;;;;19.27;67.64551;1005.807;;;;
2019/10/27 12:23:36;;;;;;;10.1;5.6;;;;;;;18.94;68.88965;1005.749;;;;
2019/10/27 12:26:01;;;;;;;7.6;4.6;;;;;;;18.94;69.00586;1005.69;;;;
2019/10/27 12:28:26;;;;;;;6.9;5.1;;;;;;;18.9;69.52539;1005.573;;;;
2019/10/27 12:30:51;;;;;;;7.4;4.8;;;;;;;18.9;69.62891;1005.614;;;;
2019/10/27 12:33:16;;;;;;;7.8;5.3;;;;;;;19.01;69.28613;1005.64;;;;
2019/10/27 12:35:41;;;;;;;6.7;4.9;;;;;;;19.11;68.70801;1005.635;;;;
2019/10/27 12:38:07;;;;;;;8;4.7;;;;;;;19.24;68.36426;1005.689;;;;
2019/10/27 12:40:32;;;;;;;9.3;4.9;;;;;;;19.47;68.36523;1005.663;;;;
2019/10/27 12:42:57;;;;;;;7.9;4.7;;;;;;;19.32;68.37793;1005.661;;;;
2019/10/27 12:45:22;;;;;;;9.3;5.4;;;;;;;19.44;68.05664;1005.667;;;;
2019/10/27 12:47:47;;;;;;;9.2;5.1;;;;;;;19.28;68.26563;1005.684;;;;
2019/10/27 12:50:12;;;;;;;7.8;5;;;;;;;19.19;68.68359;1005.639;;;;
2019/10/27 12:52:38;;;;;;;7.9;5.2;;;;;;;19.28;68.5332;1005.589;;;;
2019/10/27 12:55:02;;;;;;;9.3;5.1;;;;;;;19.16;69.06445;1005.587;;;;
2019/10/27 12:57:27;;;;;;;9.7;5;;;;;;;19.29;69.12012;1005.606;;;;
2019/10/27 12:59:53;;;;;;;6.8;4.8;;;;;;;19.42;68.86035;1005.559;;;;
2019/10/27 13:02:18;;;;;;;8.4;4.3;;;;;;;19.37;69.14453;1005.582;;;;
2019/10/27 13:04:43;;;;;;;10.2;4.8;;;;;;;19.39;68.71484;1005.576;;;;
2019/10/27 13:07:08;;;;;;;6.6;4.2;;;;;;;19.2;69.12891;1005.53;;;;
2019/10/27 13:09:33;;;;;;;6.5;4.4;;;;;;;19;69.71484;1005.403;;;;
2019/10/27 13:11:58;;;;;;;6.6;4.7;;;;;;;18.93;70.02051;1005.465;;;;
2019/10/27 13:14:24;;;;;;;5.9;4.1;;;;;;;19.01;69.89258;1005.536;;;;
2019/10/27 13:16:49;;;;;;;8;4.3;;;;;;;19.01;70.21973;1005.62;;;;
2019/10/27 13:19:14;;;;;;;5.5;3.5;;;;;;;19.14;69.36523;1005.582;;;;
2019/10/27 13:21:39;;;;;;;7.8;4.3;;;;;;;19.05;69.86328;1005.476;;;;
2019/10/27 13:24:04;;;;;;;5.2;3.8;;;;;;;18.92;69.99512;1005.43;;;;
2019/10/27 13:26:29;;;;;;;6.6;4;;;;;;;18.82;70.37598;1005.508;;;;
2019/10/27 13:28:55;;;;;;;6.8;4.3;;;;;;;18.97;70.34277;1005.586;;;;
2019/10/27 13:31:20;;;;;;;7.2;4.3;;;;;;;19.09;69.92871;1005.592;;;;
2019/10/27 13:33:45;;;;;;;6.3;4.3;;;;;;;19.3;69.47168;1005.608;;;;
2019/10/27 13:36:10;;;;;;;7.7;4.2;;;;;;;19.36;69.12988;1005.645;;;;
2019/10/27 13:38:35;;;;;;;5.4;3.9;;;;;;;18.91;70.49707;1005.654;;;;
2019/10/27 13:41:01;;;;;;;6.4;4.5;;;;;;;18.76;70.96094;1005.673;;;;
2019/10/27 13:43:26;;;;;;;6.9;4.3;;;;;;;18.69;71.36914;1005.585;;;;
2019/10/27 13:45:51;;;;;;;7.8;4;;;;;;;18.86;71.25879;1005.586;;;;
2019/10/27 13:48:16;;;;;;;7.8;4.3;;;;;;;18.93;71.02539;1005.48;;;;
2019/10/27 13:50:41;;;;;;;7.4;4.4;;;;;;;18.98;70.69238;1005.558;;;;
2019/10/27 13:53:06;;;;;;;10;4.7;;;;;;;18.8;71.24707;1005.527;;;;
2019/10/27 13:55:31;;;;;;;6.1;4.8;;;;;;;18.89;71.08789;1005.58;;;;
2019/10/27 13:57:57;;;;;;;6.4;4.6;;;;;;;18.81;71.16797;1005.589;;;;
2019/10/27 14:00:22;;;;;;;6.7;4.7;;;;;;;18.81;71.68164;1005.583;;;;
2019/10/27 14:02:47;;;;;;;7.7;4.7;;;;;;;18.71;71.66406;1005.591;;;;
2019/10/27 14:05:12;;;;;;;7.6;5;;;;;;;18.74;71.96191;1005.672;;;;
2019/10/27 14:07:37;;;;;;;7.7;5.1;;;;;;;18.89;71.66992;1005.691;;;;
2019/10/27 14:10:02;;;;;;;10.3;5.1;;;;;;;19.02;71.19043;1005.738;;;;
2019/10/27 14:12:27;;;;;;;8.2;4.6;;;;;;;18.84;71.56934;1005.652;;;;
2019/10/27 14:14:52;;;;;;;6.8;4.3;;;;;;;18.91;71.52148;1005.566;;;;